Greenville, WI

11:55 AM CDT on Septiembre 29, 2016 (GMT -0500)
76 and JJ | | Change Station

Elev 905 ft 44.33 °N, 88.55 °W | Updated 5 seconds ago

Partly Cloudy
Partly Cloudy
71.0 °F
Feels Like 75 °F
N
8.0
Hangin Variable Hangin from WNW

Ngayon
High -- | Low -- °F
--% Chance of Precip.
Yesterday
High -- | Low -- °F
Precip. -- sa
Pwersa 30.36 sa
Paningin 10.0 milya
Mga Ulap Few 1000 ft
HeatIndex 75 °F
Hamog 57 °F
Humidito 63%
Rainfall 0.00 sa
Snow Depth Not available.
6:50 AM 6:37 PM
Waning Crescent, 2% visible
METAR KATW 291645Z 03015G20KT 10SM FEW010 19/10 A3036
Pwersa 30.36 sa
Paningin 10.0 milya
Mga Ulap Few 1000 ft
HeatIndex 75 °F
Hamog 57 °F
Humidito 63%
Rainfall 0.00 sa
Snow Depth Not available.
6:50 AM 6:37 PM
Waning Crescent, 2% visible
METAR KATW 291645Z 03015G20KT 10SM FEW010 19/10 A3036

10-Day Weather Forecast

Almanac

Astronomiya

Sep. 29, 2016 Rise Set
Actual Time
Civil Twilight
Nautical Twilight
Astronomical Twilight
Buwan
Length Of Visible Light
Haba ng Araw
Tomorrow will be .
, % of the Moon is Illuminated

Today's Extremes

State Highs State Lows

Community

WunderPhotos

Upload Photos

1,942,520 photos uploaded!

WunderBlog® & News

Nearby

Air Quality

  Air Quality AQ Index Pollutant
Not available.

Snow Depth

Station Depth Elevation

Earthquake Activity

Siyudad Distance Mag. Time & Date
Minimum magnitude displayed is 2.5.

Coastal Water Temperatures

lugar Temparatura

Stations

Nearby Weather Stations

Station Location Temp Windchill Hamog Humidito Hangin Precip. Elev Bago Type
                   

Watches & Warnings

There are currently no watches in effect.